• Join FlightAware (Why Join?)
  • Login
  • US Flag 
06:22AM EDT


 

Airport Tracker/Info


-or-


 

Live Flight TrackerFlight Track Log ✈ UAL139 ✈ 05-Jul-2013 ✈ KDEN - RJAA / NRT

Flight Track Log - Related Links

Times and Time Zones

All times are in EDT time to prevent confusion due to time zone crossing. See the UAL139 flight status page for this flight to view local times or setup timezone preferences in your user account.

Time Position Orientation Groundspeed Altitude Reporting Facility
EDT Latitude Longitude Course Direction KTS MPH feet Rate Location/Type
02:48PM 39.8560 -104.6850 270° West 25 29  Level FlightAware
02:49PM 39.8560 -104.6880 270° West 25 29 300 Level FlightAware
02:51PM 39.8620 -104.6920 299° West 20 23 300 Level FlightAware
02:51PM 39.8630 -104.6930 322° Northwest 23 26 300 Level FlightAware
02:58PM 40.0196 -104.8735 312° West  Level Estimated
02:59PM 40.1016 -104.9921 312° West  Level Estimated
03:00PM 40.1835 -105.1111 312° West  Level Estimated
03:01PM 40.2652 -105.2303 312° West  Level Estimated
03:02PM 40.3468 -105.3499 312° West  Level Estimated
03:03PM 40.4283 -105.4697 312° West  Level Estimated
03:04PM 40.5096 -105.5898 312° West  Level Estimated
03:05PM 40.5909 -105.7102 312° West  Level Estimated
03:05PM 39.8871 -104.6960 180° South 114 131 5,300  Level FlightAware ADS-B
03:06PM 39.8816 -104.6960 180° South 146 168 5,300  Level FlightAware ADS-B
03:06PM 39.8681 -104.6960 180° South 162 186 5,300 540 Level FlightAware ADS-B
03:06PM 39.8529 -104.6970 183° South 214 246 5,600 1,680 Climbing FlightAware ADS-B
03:06PM 39.8431 -104.6970 180° South 216 249 6,000 2,040 Climbing FlightAware ADS-B
03:07PM 39.8210 -104.7030 192° South 216 249 6,700 1,740 Climbing FlightAware ADS-B
03:07PM 39.8174 -104.7060 213° Southwest 224 258 6,800 660 Climbing FlightAware ADS-B
03:07PM 39.8139 -104.7110 228° Southwest 230 265 6,800 720 Level FlightAware ADS-B
03:07PM 39.8118 -104.7150 236° Southwest 233 268 6,900 960 Climbing FlightAware ADS-B
03:07PM 39.8103 -104.7190 244° Southwest 235 270 6,900 660 Level FlightAware ADS-B
03:07PM 39.8084 -104.7270 253° West 240 276 7,000 1,200 Climbing FlightAware ADS-B
03:07PM 39.8080 -104.7330 265° West 242 278 7,100 1,320 Climbing FlightAware ADS-B
03:07PM 39.8086 -104.7400 276° West 245 282 7,200 1,080 Climbing FlightAware ADS-B
03:07PM 39.8104 -104.7480 286° West 250 288 7,300 660 Climbing FlightAware ADS-B
03:07PM 39.8125 -104.7530 299° West 253 291 7,300 540 Level FlightAware ADS-B
03:07PM 39.8177 -104.7620 307° West 260 299 7,400 1,500 Climbing FlightAware ADS-B
03:08PM 39.8312 -104.7810 313° West 273 314 7,900 1,740 Climbing FlightAware ADS-B
03:08PM 39.8447 -104.8000 313° West 283 326 8,300 1,860 Climbing FlightAware ADS-B
03:08PM 39.8589 -104.8210 311° West 289 333 8,900 2,400 Climbing FlightAware ADS-B
03:08PM 39.8682 -104.8340 313° West 290 334 9,400 3,000 Climbing FlightAware ADS-B
03:08PM 39.8741 -104.8410 318° Northwest 291 335 9,700 2,280 Climbing FlightAware ADS-B
03:09PM 39.8995 -104.8540 339° North 295 339 10,400 1,980 Climbing FlightAware ADS-B
03:09PM 39.9099 -104.8560 352° North 310 357 10,600 1,320 Climbing FlightAware ADS-B
03:10PM 39.9672 -104.8670 352° North 336 387 11,400 1,740 Climbing FlightAware ADS-B
03:10PM 40.0154 -104.8780 350° North 351 404 12,600 2,400 Climbing FlightAware ADS-B
03:11PM 40.0700 -104.8900 350° North 355 409 14,000 2,400 Climbing FlightAware ADS-B
03:11PM 40.1200 -104.9000 351° North 363 418 15,200 2,220 Climbing FlightAware ADS-B
03:12PM 40.1666 -104.9080 353° North 369 425 16,200 2,160 Climbing FlightAware ADS-B
03:12PM 40.2131 -104.9190 350° North 375 432 17,200 2,040 Climbing FlightAware ADS-B
03:13PM 40.2645 -104.9330 348° North 381 438 18,200 2,040 Climbing FlightAware ADS-B
03:13PM 40.3190 -104.9480 348° North 386 444 19,300 1,980 Climbing FlightAware ADS-B
03:14PM 40.3745 -104.9620 349° North 393 452 20,300 1,740 Climbing FlightAware ADS-B
03:14PM 40.4331 -104.9780 348° North 399 459 21,200 1,560 Climbing FlightAware ADS-B
03:15PM 40.4887 -104.9930 348° North 406 467 22,000 1,500 Climbing FlightAware ADS-B
03:15PM 40.5468 -105.0090 348° North 413 475 22,800 1,380 Climbing FlightAware ADS-B
03:16PM 40.6246 -105.0300 348° North 419 482 23,700 1,380 Climbing FlightAware ADS-B
03:16PM 40.6838 -105.0450 349° North 427 491 24,500 1,440 Climbing FlightAware ADS-B
03:17PM 40.7438 -105.0610 349° North 433 498 25,200 1,320 Climbing FlightAware ADS-B
03:17PM 40.7779 -105.0700 349° North 435 501 25,600 960 Climbing FlightAware ADS-B
03:18PM 40.8395 -105.0920 345° North 449 517 26,000 840 Climbing FlightAware ADS-B
03:18PM 40.8864 -105.1110 343° North 456 525 26,400 900 Climbing FlightAware ADS-B
03:18PM 40.9183 -105.1270 339° North 461 531 26,600 720 Climbing FlightAware ADS-B
03:19PM 40.9508 -105.1450 337° Northwest 464 534 26,800 840 Climbing FlightAware ADS-B
03:19PM 40.9719 -105.1610 330° Northwest 463 533 27,000 1,260 Climbing FlightAware ADS-B
03:19PM 40.9934 -105.1800 326° Northwest 464 534 27,300 1,140 Climbing FlightAware ADS-B
03:20PM 41.0410 -105.2440 315° West 466 536 27,900 1,020 Climbing FlightAware
03:20PM 41.1070 -105.3410 312° West 474 545 28,700 1,080 Climbing FlightAware
03:21PM 41.1670 -105.4320 311° West 478 550 29,500 1,140 Climbing FlightAware
03:22PM 41.2290 -105.5290 310° West 483 556 30,300 1,020 Climbing FlightAware
03:22PM 41.2820 -105.6120 310° West 488 562 30,900 1,080 Climbing FlightAware
03:23PM 41.3550 -105.7260 310° West 491 565 31,900 1,380 Climbing FlightAware
03:24PM 41.4160 -105.8230 310° West 484 557 33,000 1,500 Climbing FlightAware
03:25PM 41.4730 -105.9140 310° West 475 547 34,000 720 Climbing FlightAware
03:25PM 41.5290 -106.0120 307° West 475 547 34,000  Level FlightAware
03:26PM 41.5840 -106.1190 305° West 476 548 34,000  Level FlightAware
03:27PM 41.6380 -106.2190 306° West 476 548 34,000  Level FlightAware
03:27PM 41.6920 -106.3110 308° West 475 547 34,000  Level FlightAware
03:28PM 41.7300 -106.3720 310° West 475 547 34,000  Level FlightAware
03:29PM 41.7860 -106.4660 309° West 475 547 34,000  Level FlightAware
03:29PM 41.8280 -106.5360 309° West 475 547 34,000  Level FlightAware
03:30PM 41.8810 -106.6240 309° West 475 547 34,000  Level FlightAware
03:31PM 41.9390 -106.7190 309° West 475 547 34,000  Level FlightAware
03:32PM 41.9820 -106.7910 309° West 475 547 34,000  Level FlightAware
03:32PM 42.0250 -106.8620 309° West 475 547 34,000  Level FlightAware
03:33PM 42.0790 -106.9520 309° West 475 547 34,000  Level FlightAware
03:33PM 42.1220 -107.0240 309° West 475 547 34,000  Level FlightAware
03:34PM 42.1790 -107.1180 309° West 475 547 34,000  Level FlightAware
03:35PM 42.2200 -107.1870 309° West 475 547 34,000  Level FlightAware
03:36PM 42.2740 -107.2770 309° West 475 547 34,000  Level FlightAware
03:37PM 42.3440 -107.3950 309° West 475 547 34,000  Level FlightAware
03:37PM 42.3870 -107.4650 310° West 475 547 34,000 1,740 Level FlightAware
03:38PM 42.5436 -107.7014 310° West 467 537 36,000 1,680 Climbing Denver Center
03:38PM 42.5956 -107.7906 308° West 471 542 36,000  Level Salt Lake Center
03:39PM 42.6883 -107.9447 309° West 473 544 36,000  Level Salt Lake Center
03:40PM 42.7628 -108.0747 308° West 464 534 36,000  Level Salt Lake Center
03:41PM 42.8253 -108.2206 300° West 464 534 36,000  Level Salt Lake Center
03:43PM 42.8994 -108.3847 302° West 459 528 36,000  Level Salt Lake Center
03:44PM 42.9661 -108.5344 301° West 456 525 36,000  Level Salt Lake Center
03:45PM 43.0322 -108.6828 301° West 457 526 36,000  Level Salt Lake Center
03:46PM 43.1125 -108.8169 309° West 460 529 36,000  Level Salt Lake Center
03:47PM 43.1925 -108.9592 308° West 466 536 36,000  Level Salt Lake Center
03:48PM 43.2728 -109.0944 309° West 463 533 36,000  Level Salt Lake Center
03:49PM 43.3514 -109.2308 308° West 458 527 36,000  Level Salt Lake Center
03:50PM 43.4469 -109.3942 309° West 458 527 36,000  Level Salt Lake Center
03:51PM 43.5206 -109.5203 309° West 463 533 36,000  Level Salt Lake Center
03:52PM 43.6103 -109.6781 308° West 468 539 36,000  Level Salt Lake Center
03:53PM 43.6883 -109.8158 308° West 475 547 36,000  Level Salt Lake Center
03:54PM 43.7789 -109.9725 309° West 468 539 36,000  Level Salt Lake Center
03:55PM 43.8558 -110.1089 308° West 470 541 36,100 480 Climbing Salt Lake Center
03:56PM 43.9444 -110.2672 308° West 467 537 37,000 780 Climbing Salt Lake Center
03:57PM 44.0203 -110.4050 307° West 467 537 37,700 480 Climbing Salt Lake Center
03:58PM 44.0961 -110.5406 308° West 465 535 38,000 120 Climbing Salt Lake Center
03:59PM 44.1828 -110.7000 307° West 462 532 38,000  Level Salt Lake Center
04:00PM 44.2572 -110.8361 307° West 462 532 38,000  Level Salt Lake Center
04:01PM 44.3458 -110.9958 308° West 465 535 38,000  Level Salt Lake Center
04:02PM 44.4208 -111.1344 307° West 467 537 38,000  Level Salt Lake Center
04:03PM 44.5069 -111.2914 308° West 461 531 38,000  Level Salt Lake Center
04:04PM 44.5792 -111.4289 306° West 460 529 38,000  Level Salt Lake Center
04:05PM 44.6619 -111.5833 307° West 466 536 38,000  Level Salt Lake Center
04:06PM 44.7358 -111.7222 307° West 464 534 38,000  Level Salt Lake Center
04:07PM 44.8214 -111.8850 307° West 464 534 38,000  Level Salt Lake Center
04:08PM 44.8956 -112.0250 307° West 465 535 38,000  Level Salt Lake Center
04:09PM 44.9819 -112.1881 307° West 464 534 38,000  Level Salt Lake Center
04:10PM 45.0556 -112.3325 306° West 472 543 38,000  Level Salt Lake Center
04:11PM 45.1297 -112.4758 306° West 473 544 38,000  Level Salt Lake Center
04:12PM 45.2167 -112.6419 307° West 471 542 38,000  Level Salt Lake Center
04:13PM 45.2908 -112.7844 307° West 470 541 38,000  Level Salt Lake Center
04:14PM 45.3692 -112.9425 305° West 469 540 38,000  Level Salt Lake Center
04:15PM 45.4461 -113.0936 306° West 470 541 38,000  Level Salt Lake Center
04:16PM 45.5211 -113.2422 306° West 464 534 38,000  Level Salt Lake Center
04:17PM 45.5967 -113.3942 305° West 467 537 38,000  Level Salt Lake Center
04:18PM 45.6889 -113.5756 306° West 469 540 38,000  Level Salt Lake Center
04:19PM 45.7558 -113.7072 306° West 469 540 38,000 -60 Level Salt Lake Center
04:21PM 45.8303 -113.8603 305° West 469 540 37,900 -60 Descending Salt Lake Center
04:22PM 45.9064 -114.0144 305° West 473 544 37,900  Level Salt Lake Center
04:23PM 45.9964 -114.2006 305° West 473 544 38,000  Climbing Salt Lake Center
04:24PM 46.0725 -114.3556 305° West 475 547 37,900 -60 Descending Salt Lake Center
04:25PM 46.1469 -114.5125 304° West 475 547 37,900  Level Salt Lake Center
04:26PM 46.2225 -114.6689 305° West 475 547 38,000 60 Climbing Salt Lake Center
04:26PM 46.2664 -114.7625 304° West 472 543 38,000 -120 Level Seattle Center
04:27PM 46.3408 -114.9169 305° West 470 541 37,900  Descending Seattle Center
04:28PM 46.4228 -115.0914 304° West 469 540 38,000  Climbing Seattle Center
04:29PM 46.4958 -115.2464 304° West 467 537 38,000  Level Seattle Center
04:30PM 46.5683 -115.4008 304° West 465 535 38,000  Level Seattle Center
04:31PM 46.6414 -115.5581 304° West 469 540 38,000 -60 Level Seattle Center
04:32PM 46.7131 -115.7158 304° West 469 540 37,900  Descending Seattle Center
04:33PM 46.7864 -115.8742 304° West 471 542 38,000  Climbing Seattle Center
04:34PM 46.8589 -116.0319 304° West 470 541 38,000  Level Seattle Center
04:35PM 46.9308 -116.1917 303° West 471 542 38,000  Level Seattle Center
04:36PM 47.0019 -116.3494 304° West 467 537 38,000 -60 Level Seattle Center
04:37PM 47.0733 -116.5072 304° West 465 535 37,900  Descending Seattle Center
04:38PM 47.1439 -116.6667 303° West 467 537 38,000  Climbing Seattle Center
04:40PM 47.2153 -116.8275 303° West 469 540 37,900  Descending Seattle Center
04:41PM 47.3003 -117.0203 303° West 466 536 38,000  Climbing Seattle Center
04:42PM 47.3700 -117.1806 303° West 461 531 38,000 -60 Level Seattle Center
04:43PM 47.4272 -117.3122 303° West 465 535 37,900  Descending Seattle Center
04:48PM 47.8340 -118.2940 303° West 473 544 38,000  Climbing FlightAware
04:49PM 47.8780 -118.4060 300° West 470 541 38,000  Level FlightAware
04:50PM 47.9280 -118.5340 300° West 469 540 38,000  Level FlightAware
04:50PM 47.9720 -118.6440 301° West 473 544 38,000  Level FlightAware
04:51PM 48.0149 -118.7540 300° West 474 545 38,000  Level FlightAware ADS-B
04:52PM 48.0586 -118.8660 300° West 473 544 38,000  Level FlightAware ADS-B
04:52PM 48.0982 -118.9680 300° West 473 544 38,000  Level FlightAware ADS-B
04:53PM 48.1312 -119.0540 300° West 474 545 38,000  Level FlightAware ADS-B
04:53PM 48.1645 -119.1400 300° West 473 544 38,000  Level FlightAware ADS-B
04:54PM 48.2004 -119.2330 300° West 474 545 38,000  Level FlightAware ADS-B
04:54PM 48.2334 -119.3190 300° West 475 547 38,000  Level FlightAware ADS-B
04:55PM 48.2660 -119.4050 300° West 473 544 38,000  Level FlightAware ADS-B
04:55PM 48.2991 -119.4910 300° West 472 543 38,000  Level FlightAware ADS-B
04:56PM 48.3324 -119.5790 300° West 470 541 38,000  Level FlightAware ADS-B
04:56PM 48.3675 -119.6720 300° West 471 542 38,000  Level FlightAware ADS-B
04:57PM 48.3999 -119.7580 300° West 473 544 38,000  Level FlightAware ADS-B
04:57PM 48.4322 -119.8440 300° West 471 542 38,000  Level FlightAware ADS-B
04:58PM 48.4646 -119.9310 299° West 471 542 38,000  Level FlightAware ADS-B
04:58PM 48.4966 -120.0160 300° West 472 543 38,000  Level FlightAware ADS-B
04:59PM 48.5288 -120.1030 299° West 471 542 38,000  Level FlightAware ADS-B
04:59PM 48.5617 -120.1920 299° West 467 537 38,000  Level FlightAware ADS-B
05:00PM 48.5962 -120.2850 299° West 466 536 38,000  Level FlightAware ADS-B
05:01PM 48.6296 -120.3760 299° West 467 537 38,000  Level FlightAware ADS-B
05:01PM 48.6631 -120.4670 299° West 466 536 38,000  Level FlightAware ADS-B
05:02PM 48.6949 -120.5540 299° West 465 535 38,000  Level FlightAware ADS-B
05:02PM 48.7261 -120.6400 299° West 464 534 38,000  Level FlightAware ADS-B
05:03PM 48.7570 -120.7250 299° West 464 534 38,000  Level FlightAware ADS-B
05:03PM 48.7878 -120.8100 299° West 462 532 38,000  Level FlightAware ADS-B
05:04PM 48.8188 -120.8950 299° West 463 533 38,000  Level FlightAware ADS-B
05:04PM 48.8548 -120.9940 299° West 464 534 38,000  Level FlightAware ADS-B
05:05PM 48.8896 -121.0830 301° West 465 535 38,000  Level FlightAware ADS-B
05:05PM 48.9231 -121.1690 301° West 468 539 38,000  Level FlightAware ADS-B
05:06PM 48.9575 -121.2580 301° West 469 540 38,000  Level FlightAware ADS-B
05:06PM 48.9902 -121.3440 300° West 469 540 38,000  Level FlightAware ADS-B
05:07PM 49.0231 -121.4300 300° West 468 539 38,000  Level FlightAware ADS-B
05:07PM 49.0555 -121.5160 300° West 468 539 38,000  Level FlightAware ADS-B
05:08PM 49.0882 -121.6020 300° West 469 540 38,000  Level FlightAware ADS-B
05:08PM 49.1221 -121.6930 300° West 468 539 38,000  Level FlightAware ADS-B
05:09PM 49.1554 -121.7820 300° West 469 540 38,000  Level FlightAware ADS-B
05:09PM 49.1884 -121.8700 300° West 467 537 38,000  Level FlightAware ADS-B
05:10PM 49.2209 -121.9570 300° West 466 536 38,000  Level FlightAware ADS-B
05:10PM 49.2529 -122.0430 300° West 464 534 38,000  Level FlightAware ADS-B
05:11PM 49.2893 -122.1410 300° West 463 533 38,000  Level FlightAware ADS-B
05:11PM 49.3225 -122.2310 300° West 463 533 38,000  Level FlightAware ADS-B
05:12PM 49.3542 -122.3170 300° West 463 533 38,000  Level FlightAware ADS-B
05:12PM 49.3868 -122.4060 299° West 463 533 38,000  Level FlightAware ADS-B
05:13PM 49.4383 -122.5470 299° West 462 532 38,000  Level FlightAware ADS-B
05:14PM 49.4896 -122.6880 299° West 464 534 38,000  Level FlightAware ADS-B
05:15PM 49.5216 -122.7770 299° West 465 535 38,000  Level FlightAware ADS-B
05:15PM 49.5528 -122.8640 299° West 465 535 38,000  Level FlightAware ADS-B
05:16PM 49.5842 -122.9510 299° West 460 529 38,000  Level FlightAware ADS-B
05:16PM 49.6175 -123.0440 299° West 458 527 38,000  Level FlightAware ADS-B
05:17PM 49.6570 -123.1550 299° West 457 526 38,000  Level FlightAware
05:18PM 49.7040 -123.2870 299° West 459 528 38,000  Level FlightAware
05:18PM 49.7440 -123.4000 299° West 459 528 38,000  Level FlightAware
05:19PM 49.7870 -123.5240 298° West 459 528 38,000  Level FlightAware
05:20PM 49.8270 -123.6380 299° West 460 529 38,000  Level FlightAware
05:20PM 49.8730 -123.7700 298° West 463 533 38,000  Level FlightAware
05:21PM 49.9140 -123.8890 298° West 463 533 38,000  Level FlightAware
05:22PM 49.9520 -123.9990 298° West 464 534 38,000  Level FlightAware
05:22PM 49.9990 -124.1360 298° West 463 533 38,000  Level FlightAware ADS-B
05:23PM 50.0400 -124.2560 298° West 458 527 38,000  Level FlightAware
05:24PM 50.0820 -124.3780 298° West 457 526 38,000  Level FlightAware
05:25PM 50.1340 -124.5350 297° West 455 524 38,000  Level FlightAware
05:25PM 50.1730 -124.6500 298° West 452 520 38,000  Level FlightAware
05:26PM 50.2170 -124.7720 299° West 446 513 38,000  Level FlightAware
05:27PM 50.2640 -124.8860 303° West 451 519 38,000  Level FlightAware
05:27PM 50.3040 -124.9840 303° West 450 518 38,000  Level FlightAware
05:28PM 50.3550 -125.1070 303° West 450 518 38,000  Level FlightAware
05:29PM 50.4000 -125.2160 303° West 451 519 38,000  Level FlightAware
05:29PM 50.4400 -125.3130 303° West 451 519 38,000  Level FlightAware
05:30PM 50.4850 -125.4250 302° West 451 519 38,000  Level FlightAware
05:31PM 50.5290 -125.5320 303° West 451 519 38,000  Level FlightAware
05:31PM 50.5760 -125.6490 302° West 452 520 38,000  Level FlightAware
05:32PM 50.6200 -125.7580 302° West 450 518 38,000  Level FlightAware
05:33PM 50.6660 -125.8720 303° West 453 521 38,000  Level FlightAware
05:33PM 50.7080 -125.9780 302° West 454 522 38,000  Level FlightAware
05:34PM 50.7560 -126.0980 302° West 454 522 38,000  Level FlightAware
05:35PM 50.8170 -126.2530 302° West 455 524 38,000  Level FlightAware
05:36PM 50.8580 -126.3560 302° West 455 524 38,000  Level FlightAware
05:36PM 50.8920 -126.4430 302° West 455 524 38,000  Level FlightAware
05:37PM 50.9380 -126.5580 302° West 455 524 38,000  Level FlightAware
05:38PM 50.9720 -126.6450 302° West 455 524 38,000  Level FlightAware
05:39PM 51.0180 -126.7630 302° West 455 524 38,000  Level FlightAware
05:39PM 51.0520 -126.8500 302° West 455 524 38,000  Level FlightAware
05:40PM 51.0980 -126.9660 302° West 455 524 38,000  Level FlightAware
05:41PM 51.1320 -127.0530 302° West 455 524 38,000  Level FlightAware
05:41PM 51.1660 -127.1400 302° West 455 524 38,000  Level FlightAware
05:42PM 51.2030 -127.2350 302° West 455 524 38,000  Level FlightAware
05:43PM 51.2490 -127.3530 302° West 455 524 38,000  Level FlightAware
05:43PM 51.2830 -127.4380 303° West 455 524 38,000  Level FlightAware
05:44PM 51.3180 -127.5280 302° West 455 524 38,000  Level FlightAware
05:45PM 51.3630 -127.6450 302° West 455 524 38,000  Level FlightAware
05:45PM 51.3980 -127.7350 302° West 455 524 38,000  Level FlightAware
05:46PM 51.5000 -128.0833 302° West 450 518 38,000  Level Vancouver Center
05:47PM 51.5667 -128.2500 303° West 450 518 38,000  Level Vancouver Center
05:48PM 51.6167 -128.4333 294° West 450 518 38,000  Level Vancouver Center
05:49PM 51.6833 -128.6167 300° West 450 518 38,000  Level Vancouver Center
05:50PM 51.7500 -128.7833 303° West 450 518 38,000  Level Vancouver Center
05:51PM 51.8167 -128.9667 301° West 450 518 38,000  Level Vancouver Center
05:52PM 51.8667 -129.1333 296° West 450 518 38,000  Level Vancouver Center
05:53PM 51.9333 -129.3333 298° West 450 518 38,000  Level Vancouver Center
05:54PM 51.9833 -129.5000 296° West 450 518 38,000  Level Vancouver Center
05:55PM 52.0667 -129.6667 309° West 450 518 38,000  Level Vancouver Center
05:56PM 52.1167 -129.8667 292° West 450 518 38,000  Level Vancouver Center
05:57PM 52.1833 -130.0333 303° West 450 518 38,000  Level Vancouver Center
05:58PM 52.2333 -130.2167 294° West 450 518 38,000  Level Vancouver Center
05:59PM 52.3000 -130.3833 303° West 450 518 38,000  Level Vancouver Center
06:00PM 52.3667 -130.5833 299° West 450 518 38,000  Level Vancouver Center
06:01PM 52.4333 -130.7667 301° West 450 518 38,000  Level Vancouver Center
06:02PM 52.4833 -130.9333 296° West 450 518 38,000  Level Vancouver Center
06:03PM 52.5333 -131.1000 296° West 450 518 38,000  Level Vancouver Center
06:04PM 52.6167 -131.3167 302° West 450 518 38,000  Level Vancouver Center
06:05PM 52.6667 -131.4833 296° West 450 518 38,000  Level Vancouver Center
06:06PM 52.7167 -131.6833 292° West 450 518 38,000  Level Vancouver Center
06:07PM 52.7833 -131.8667 301° West 460 529 38,000  Level Vancouver Center
06:08PM 52.8333 -132.0500 294° West 450 518 38,000  Level Vancouver Center
06:09PM 52.8833 -132.2167 296° West 450 518 38,000  Level Vancouver Center
06:10PM 52.9333 -132.4000 294° West 450 518 38,000  Level Vancouver Center
06:11PM 53.0167 -132.6000 305° West 450 518 38,000  Level Vancouver Center
06:12PM 53.0667 -132.7833 294° West 450 518 38,000  Level Vancouver Center
06:13PM 53.1167 -132.9667 294° West 440 506 38,000  Level Vancouver Center
06:14PM 53.1667 -133.1500 295° West 440 506 38,000  Level Vancouver Center
06:15PM 53.2167 -133.3167 297° West 440 506 38,000  Level Vancouver Center
06:16PM 53.2833 -133.5000 301° West 440 506 38,000  Level Vancouver Center
06:17PM 53.3333 -133.7167 291° West 440 506 38,000  Level Vancouver Center
06:18PM 53.3833 -133.8667 299° West 440 506 38,000  Level Vancouver Center
06:19PM 53.4333 -134.0500 295° West 440 506 38,000  Level Vancouver Center
06:20PM 53.4833 -134.2500 293° West 440 506 38,000  Level Vancouver Center
06:21PM 53.5333 -134.4333 295° West 440 506 38,000  Level Vancouver Center
06:22PM 53.6000 -134.6167 302° West 440 506 38,000  Level Vancouver Center
06:23PM 53.6333 -134.8000 287° West 440 506 38,000  Level Vancouver Center
06:24PM 53.7000 -134.9833 302° West 440 506 38,000  Level Vancouver Center
06:25PM 53.7500 -135.1833 293° West 440 506 38,000  Level Vancouver Center
06:26PM 53.8000 -135.3667 295° West 440 506 38,000  Level Vancouver Center
06:27PM 53.8500 -135.5500 295° West 440 506 38,000  Level Vancouver Center
06:28PM 53.9000 -135.7333 295° West 440 506 38,000 120 Level Vancouver Center
06:29PM 53.9500 -135.9167 295° West 440 506 38,300 420 Climbing Vancouver Center
06:30PM 54.0000 -136.1000 295° West 440 506 38,900 480 Climbing Vancouver Center
06:31PM 54.0667 -136.3000 300° West 450 518 39,300 540 Climbing Vancouver Center
06:32PM 54.1333 -136.4833 302° West 450 518 40,000 300 Climbing Vancouver Center
06:33PM 54.1833 -136.6667 295° West 440 506 40,000  Level Vancouver Center
06:34PM 54.2500 -136.8333 304° West 440 506 40,000  Level Vancouver Center
06:35PM 54.2833 -137.0333 286° West 450 518 40,000  Level Vancouver Center
06:36PM 54.3500 -137.2167 302° West 450 518 40,000  Level Vancouver Center
06:37PM 54.4167 -137.4167 300° West 450 518 40,000  Level Vancouver Center
06:38PM 54.4833 -137.6167 300° West 450 518 40,000  Level Vancouver Center
06:39PM 54.5167 -137.8000 287° West 450 518 40,000  Level Vancouver Center
06:40PM 54.5833 -138.0000 300° West 460 529 40,000  Level Vancouver Center
06:41PM 54.6500 -138.2000 300° West 450 518 40,000  Level Vancouver Center
06:42PM 54.7167 -138.3833 302° West 450 518 40,000  Level Vancouver Center
06:43PM 54.7500 -138.5833 286° West 460 529 40,000  Level Vancouver Center
06:44PM 54.8167 -138.7833 300° West 450 518 40,000  Level Vancouver Center
06:45PM 54.8667 -138.9667 295° West 450 518 40,000  Level Vancouver Center
06:46PM 54.9167 -139.1167 300° West 450 518 40,000  Level Vancouver Center
06:47PM 54.9667 -139.3167 294° West 450 518 40,000  Level Vancouver Center
06:48PM 55.0333 -139.5167 300° West 460 529 40,000  Level Vancouver Center
06:49PM 55.0833 -139.7167 294° West 460 529 40,000  Level Vancouver Center
06:50PM 55.1500 -139.9167 300° West 460 529 40,000  Level Vancouver Center
06:51PM 55.1833 -140.1167 286° West 460 529 40,000  Level Vancouver Center
06:53PM 55.3333 -140.5167 304° West 450 518 40,000  Level Anchorage Center
06:54PM 55.4000 -140.7667 295° West 440 506 40,000  Level Anchorage Center
06:55PM 55.4500 -140.9667 294° West 470 541 40,000  Level Anchorage Center
06:56PM 55.4833 -141.1333 290° West 460 529 40,000  Level Anchorage Center
06:57PM 55.5500 -141.3833 295° West 460 529 40,000  Level Anchorage Center
06:58PM 55.6000 -141.5833 294° West 460 529 40,000  Level Anchorage Center
06:59PM 55.6667 -141.7833 301° West 460 529 40,000  Level Anchorage Center
07:00PM 55.7167 -142.0000 292° West 460 529 40,000  Level Anchorage Center
07:01PM 55.7500 -142.1667 290° West 460 529 40,000  Level Anchorage Center
07:02PM 55.8000 -142.3833 292° West 450 518 40,000  Level Anchorage Center
07:03PM 55.8500 -142.5833 294° West 450 518 40,000  Level Anchorage Center
07:04PM 55.9000 -142.7833 294° West 450 518 40,000  Level Anchorage Center
07:05PM 55.9500 -143.0167 291° West 460 529 40,000  Level Anchorage Center
07:06PM 56.0000 -143.2333 293° West 460 529 40,000  Level Anchorage Center
07:07PM 56.0500 -143.4333 294° West 460 529 40,000  Level Anchorage Center
07:08PM 56.1000 -143.6500 293° West 460 529 40,000  Level Anchorage Center
07:09PM 56.1500 -143.8667 293° West 470 541 40,000  Level Anchorage Center
07:10PM 56.2000 -144.0833 293° West 460 529 40,000  Level Anchorage Center
07:11PM 56.2500 -144.3000 293° West 470 541 40,000  Level Anchorage Center
07:12PM 56.3000 -144.5333 291° West 470 541 40,000  Level Anchorage Center
07:13PM 56.3500 -144.7500 293° West 470 541 40,000  Level Anchorage Center
07:14PM 56.4000 -144.9667 293° West 460 529 40,000  Level Anchorage Center
07:15PM 56.4500 -145.1833 293° West 460 529 40,000  Level Anchorage Center
07:16PM 56.5000 -145.4000 293° West 460 529 40,000  Level Anchorage Center
07:17PM 56.5333 -145.6167 286° West 460 529 40,000  Level Anchorage Center
07:18PM 56.5833 -145.8333 293° West 460 529 40,000  Level Anchorage Center
07:19PM 56.6333 -146.0500 293° West 470 541 40,000  Level Anchorage Center
07:20PM 56.6833 -146.2833 291° West 470 541 40,000  Level Anchorage Center
07:21PM 56.7167 -146.5000 286° West 460 529 40,000  Level Anchorage Center
07:22PM 56.7667 -146.7167 293° West 460 529 40,000  Level Anchorage Center
07:23PM 56.8167 -146.9500 291° West 460 529 40,000  Level Anchorage Center
07:24PM 56.8500 -147.1667 286° West 470 541 40,000  Level Anchorage Center
07:25PM 56.9000 -147.4000 292° West 470 541 40,000  Level Anchorage Center
07:26PM 56.9500 -147.6333 292° West 470 541 40,000  Level Anchorage Center
07:27PM 56.9833 -147.8500 286° West 460 529 40,000  Level Anchorage Center
07:28PM 57.0333 -148.0833 292° West 460 529 40,000  Level Anchorage Center
07:29PM 57.0667 -148.3167 285° West 470 541 40,000  Level Anchorage Center
07:30PM 57.1167 -148.5500 292° West 470 541 40,000  Level Anchorage Center
07:31PM 57.1500 -148.7667 286° West 470 541 40,000  Level Anchorage Center
07:32PM 57.2000 -149.0000 292° West 470 541 40,000  Level Anchorage Center
07:33PM 57.2333 -149.2333 285° West 460 529 40,000  Level Anchorage Center
07:34PM 57.2833 -149.4667 292° West 470 541 40,000  Level Anchorage Center
07:35PM 57.3167 -149.7000 285° West 470 541 40,000  Level Anchorage Center
07:36PM 57.3667 -149.9667 289° West 460 529 40,000  Level Anchorage Center
07:37PM 57.4000 -150.1667 287° West 470 541 40,000  Level Anchorage Center
07:38PM 57.4500 -150.4500 288° West 470 541 40,000  Level Anchorage Center
07:39PM 57.4833 -150.6667 286° West 460 529 40,000  Level Anchorage Center
07:40PM 57.5333 -150.9000 292° West 470 541 40,000  Level Anchorage Center
07:41PM 57.5833 -151.1333 292° West 480 552 40,000  Level Anchorage Center
07:42PM 57.6333 -151.3500 293° West 470 541 40,000  Level Anchorage Center
07:43PM 57.6667 -151.5833 285° West 470 541 40,000  Level Anchorage Center
07:44PM 57.7167 -151.8167 292° West 470 541 40,000  Level Anchorage Center
07:45PM 57.7667 -152.0500 292° West 470 541 40,000  Level Anchorage Center
07:46PM 57.8000 -152.2833 285° West 480 552 40,000  Level Anchorage Center
07:47PM 57.8500 -152.5167 292° West 480 552 40,000  Level Anchorage Center
07:48PM 57.9000 -152.7667 291° West 480 552 40,000  Level Anchorage Center
07:49PM 57.9333 -153.0000 285° West 470 541 40,000  Level Anchorage Center
07:50PM 57.9833 -153.2333 292° West 470 541 40,000  Level Anchorage Center
07:51PM 58.0167 -153.4667 285° West 470 541 40,000  Level Anchorage Center
07:52PM 58.0667 -153.7167 291° West 480 552 40,000  Level Anchorage Center
07:54PM 58.1000 -153.9500 285° West 480 552 40,000  Level Anchorage Center
07:55PM 58.1500 -154.1833 292° West 470 541 40,000  Level Anchorage Center
07:56PM 58.2000 -154.4333 291° West 480 552 40,000  Level Anchorage Center
07:57PM 58.2333 -154.6667 285° West 480 552 40,000  Level Anchorage Center
07:58PM 58.2667 -154.9167 284° West 480 552 40,000  Level Anchorage Center
07:59PM 58.3167 -155.1667 291° West 480 552 40,000  Level Anchorage Center
08:00PM 58.3500 -155.4000 285° West 480 552 40,000  Level Anchorage Center
08:01PM 58.3833 -155.6500 284° West 470 541 40,000  Level Anchorage Center
08:02PM 58.4333 -155.9000 291° West 480 552 40,000  Level Anchorage Center
08:03PM 58.4667 -156.1333 285° West 470 541 40,000  Level Anchorage Center
08:04PM 58.5000 -156.3833 284° West 470 541 40,000  Level Anchorage Center
08:05PM 58.5333 -156.6333 284° West 480 552 40,000  Level Anchorage Center
08:06PM 58.5833 -156.8833 291° West 470 541 40,000  Level Anchorage Center
08:07PM 58.6167 -157.1167 285° West 480 552 40,000  Level Anchorage Center
08:08PM 58.6500 -157.3667 284° West 480 552 40,000  Level Anchorage Center
08:09PM 58.6833 -157.6167 284° West 480 552 40,000  Level Anchorage Center
08:10PM 58.7167 -157.8667 285° West 480 552 40,000  Level Anchorage Center
08:11PM 58.7500 -158.1167 285° West 470 541 40,000  Level Anchorage Center
08:12PM 58.7833 -158.3667 285° West 470 541 40,000  Level Anchorage Center
08:13PM 58.8167 -158.6167 285° West 480 552 40,000  Level Anchorage Center
08:14PM 58.8500 -158.8667 285° West 480 552 40,000  Level Anchorage Center
08:15PM 58.9000 -159.1667 288° West 480 552 40,000  Level Anchorage Center
08:16PM 58.9167 -159.4167 277° West 480 552 40,000  Level Anchorage Center
08:17PM 58.9500 -159.6833 284° West 480 552 40,000  Level Anchorage Center
08:18PM 58.9833 -159.9333 285° West 490 564 40,000  Level Anchorage Center
08:19PM 59.0000 -160.2000 277° West 490 564 40,000  Level Anchorage Center
08:20PM 59.0000 -160.4500 270° West 480 552 40,000  Level Anchorage Center
08:21PM 59.0000 -160.7167 270° West 480 552 40,000  Level Anchorage Center
08:22PM 59.0000 -160.9833 270° West 480 552 40,000  Level Anchorage Center
08:23PM 59.0000 -161.2500 270° West 480 552 40,000  Level Anchorage Center
08:24PM 58.9833 -161.5000 263° West 480 552 40,000  Level Anchorage Center
08:25PM 59.0000 -161.7667 277° West 470 541 40,000  Level Anchorage Center
08:26PM 58.9833 -162.0333 263° West 480 552 40,000  Level Anchorage Center
08:27PM 58.9833 -162.2833 270° West 480 552 40,000  Level Anchorage Center
08:28PM 58.9833 -162.5500 270° West 470 541 40,000  Level Anchorage Center
08:29PM 58.9833 -162.8000 270° West 480 552 40,000  Level Anchorage Center
08:30PM 58.9667 -163.0667 263° West 490 564 40,000  Level Anchorage Center
08:31PM 58.9667 -163.3167 270° West 480 552 40,000  Level Anchorage Center
08:32PM 58.9667 -163.5833 270° West 480 552 40,000  Level Anchorage Center
08:33PM 58.9500 -163.8500 263° West 480 552 40,000  Level Anchorage Center
08:34PM 58.9500 -164.1000 270° West 470 541 40,000  Level Anchorage Center
08:35PM 58.9500 -164.3667 270° West 470 541 40,000  Level Anchorage Center
08:36PM 58.9333 -164.6167 263° West 480 552 40,000  Level Anchorage Center
08:37PM 58.9333 -164.8833 270° West 480 552 40,000  Level Anchorage Center
08:38PM 58.9167 -165.1333 263° West 470 541 40,000  Level Anchorage Center
08:39PM 58.9167 -165.4000 270° West 480 552 40,000  Level Anchorage Center
08:40PM 58.9000 -165.6667 263° West 470 541 40,000  Level Anchorage Center
08:41PM 58.8833 -165.9167 263° West 480 552 40,000  Level Anchorage Center
08:42PM 58.8833 -166.1833 270° West 470 541 40,000  Level Anchorage Center
08:43PM 58.8667 -166.4500 263° West 490 564 40,000  Level Anchorage Center
08:44PM 58.8500 -166.7000 263° West 480 552 40,000  Level Anchorage Center
08:45PM 58.8333 -166.9833 264° West 470 541 40,000  Level Anchorage Center
08:46PM 58.8167 -167.2333 263° West 470 541 40,000  Level Anchorage Center
08:47PM 58.8000 -167.5000 263° West 480 552 40,000  Level Anchorage Center
08:48PM 58.7833 -167.7500 263° West 480 552 40,000  Level Anchorage Center
08:49PM 58.7667 -168.0167 263° West 480 552 40,000  Level Anchorage Center
08:50PM 58.7500 -168.2667 263° West 480 552 40,000  Level Anchorage Center
08:51PM 58.7333 -168.5333 263° West 480 552 40,000  Level Anchorage Center
08:52PM 58.7167 -168.7833 263° West 480 552 40,000  Level Anchorage Center
08:53PM 58.7000 -169.0500 263° West 480 552 40,000  Level Anchorage Center
08:54PM 58.6833 -169.3000 263° West 490 564 40,000  Level Anchorage Center
08:55PM 58.6500 -169.5667 257° West 490 564 40,000  Level Anchorage Center
08:56PM 58.6333 -169.8333 263° West 490 564 40,000  Level Anchorage Center
08:57PM 58.6167 -170.0833 263° West 480 552 40,000  Level Anchorage Center
08:58PM 58.6000 -170.3500 263° West 490 564 40,000  Level Anchorage Center
08:59PM 58.5667 -170.6000 256° West 490 564 40,000  Level Anchorage Center
09:00PM 58.5500 -170.8667 263° West 480 552 40,000  Level Anchorage Center
09:01PM 58.5333 -171.1167 263° West 480 552 40,000  Level Anchorage Center
09:02PM 58.5000 -171.3667 256° West 470 541 40,000  Level Anchorage Center
09:03PM 58.4833 -171.6167 263° West 480 552 40,000  Level Anchorage Center
09:04PM 58.4500 -171.8833 257° West 480 552 40,000  Level Anchorage Center
09:05PM 58.4333 -172.1333 263° West 490 564 40,000  Level Anchorage Center
09:06PM 58.4000 -172.3833 256° West 480 552 40,000  Level Anchorage Center
09:07PM 58.3833 -172.6333 263° West 490 564 40,000  Level Anchorage Center
09:08PM 58.3500 -172.9000 257° West 480 552 40,000  Level Anchorage Center
09:09PM 58.3167 -173.1500 256° West 500 575 40,000  Level Anchorage Center
09:10PM 58.3000 -173.4000 263° West 490 564 40,000  Level Anchorage Center
09:11PM 58.2667 -173.6667 257° West 490 564 40,000  Level Anchorage Center
09:12PM 58.2000 -173.9000 242° Southwest 480 552 40,000  Level Anchorage Center
09:13PM 58.1500 -174.1500 249° West 490 564 40,000 180 Level Anchorage Center
09:14PM 58.1000 -174.3333 243° Southwest 500 575 40,400 480 Climbing Anchorage Center
09:15PM 58.0333 -174.6333 247° West 500 575 41,000 300 Climbing Anchorage Center
09:16PM 57.9833 -174.8667 248° West 490 564 41,000  Level Anchorage Center
09:17PM 57.9500 -175.0500 251° West 480 552 41,000  Level Anchorage Center
09:18PM 57.8833 -175.3000 243° Southwest 500 575 41,000  Level Anchorage Center
09:19PM 57.8333 -175.5333 248° West 500 575 41,000  Level Anchorage Center
09:20PM 57.7667 -175.7667 242° Southwest 500 575 41,000  Level Anchorage Center
09:21PM 57.7167 -176.0000 248° West 490 564 41,000  Level Anchorage Center
09:22PM 57.6667 -176.2333 248° West 500 575 41,000  Level Anchorage Center
09:23PM 57.6000 -176.4667 242° Southwest 490 564 41,000  Level Anchorage Center
09:24PM 57.5500 -176.7000 248° West 500 575 41,000  Level Anchorage Center
09:27PM 57.4623 -177.0798 245° Southwest  Level FlightAware Approximate
09:29PM 57.2833 -177.8167 244° Southwest 491 565 41,000  Level Anchorage Center
09:34PM 57.0728 -178.5561 245° Southwest  Level FlightAware Approximate
09:35PM 57.0157 -178.7644 243° Southwest  Level FlightAware Approximate
09:36PM 56.8516 -179.3956 243° Southwest 491 565 41,000  Level FlightAware Transoceanic
09:37PM 56.7883 -179.6182 242° Southwest 491 565 41,000  Level FlightAware Transoceanic
09:38PM 56.7247 -179.8400 242° Southwest 491 565 41,000  Level FlightAware Transoceanic
09:38PM 56.6833 -179.9500 243° Southwest 495 570 41,000  Level Anchorage Center
09:39PM 56.6606 179.9390 242° Southwest 491 565 41,000  Level FlightAware Transoceanic
09:40PM 56.5961 179.7187 242° Southwest 491 565 41,000  Level FlightAware Transoceanic
09:41PM 56.5313 179.4991 242° Southwest 491 565 41,000  Level FlightAware Transoceanic
09:42PM 56.4660 179.2803 242° Southwest 491 565 41,000  Level FlightAware Transoceanic
09:43PM 56.4004 179.0623 241° Southwest 491 565 41,000  Level FlightAware Transoceanic
09:44PM 56.3175 178.8020 242° Southwest 495 570 41,000  Level FlightAware Transoceanic
09:45PM 56.2553 178.5963 241° Southwest 495 570 41,000  Level FlightAware Transoceanic
09:46PM 56.1927 178.3913 241° Southwest 495 570 41,000  Level FlightAware Transoceanic
09:47PM 56.1299 178.1870 241° Southwest 495 570 41,000  Level FlightAware Transoceanic
09:48PM 56.0667 177.9833 241° Southwest 495 570 41,000  Level FlightAware Transoceanic
09:48PM 56.0667 177.9833 241° Southwest 500 575 41,000  Level Anchorage Center
09:48PM 56.0500 177.9333 241° Southwest 499 574 41,000  Level Anchorage Center
09:49PM 55.9992 177.7703 240° Southwest 495 570 41,000  Level FlightAware Transoceanic
09:50PM 55.9314 177.5579 240° Southwest 495 570 41,000  Level FlightAware Transoceanic
09:50PM 55.9167 177.5333 239° Southwest 490 564 41,000  Level Anchorage Center
09:51PM 55.8633 177.3464 240° Southwest 495 570 41,000  Level FlightAware Transoceanic
09:51PM 55.8500 177.3500 237° Southwest 490 564 41,000  Level Anchorage Center
09:52PM 55.7947 177.1355 240° Southwest 495 570 41,000  Level FlightAware Transoceanic
09:52PM 55.7833 177.1167 243° Southwest 500 575 41,000  Level Anchorage Center
09:53PM 55.7258 176.9254 240° Southwest 495 570 41,000  Level FlightAware Transoceanic
09:53PM 55.7000 176.8833 238° Southwest 480 552 41,000  Level Anchorage Center
09:54PM 55.6434 176.6784 239° Southwest 499 574 41,000  Level FlightAware Transoceanic
09:54PM 55.6500 176.7167 242° Southwest 480 552 41,000  Level Anchorage Center
09:55PM 55.5744 176.4718 239° Southwest 499 574 41,000  Level FlightAware Transoceanic
09:55PM 55.5667 176.4833 238° Southwest 480 552 41,000  Level Anchorage Center
09:56PM 55.5167 176.3167 242° Southwest 480 552 41,000  Level Anchorage Center
09:57PM 55.4333 176.0833 238° Southwest 490 564 41,000  Level Anchorage Center
09:58PM 55.3833 175.9000 244° Southwest 490 564 41,000  Level Anchorage Center
09:59PM 55.3000 175.6667 238° Southwest 490 564 41,000  Level Anchorage Center
10:00PM 55.2167 175.4500 236° Southwest 490 564 41,000  Level Anchorage Center
10:01PM 55.1667 175.2833 242° Southwest 490 564 41,000  Level Anchorage Center
10:02PM 55.0833 175.0500 238° Southwest 490 564 41,000  Level Anchorage Center
10:03PM 55.0167 174.8833 235° Southwest 490 564 41,000  Level Anchorage Center
10:04PM 54.9333 174.6667 236° Southwest 490 564 41,000  Level Anchorage Center
10:05PM 54.8833 174.4833 245° Southwest 480 552 41,000  Level Anchorage Center
10:06PM 54.8000 174.2667 236° Southwest 490 564 41,000  Level Anchorage Center
10:07PM 54.7333 174.1000 235° Southwest 490 564 41,000  Level Anchorage Center
10:08PM 54.6667 173.8833 242° Southwest 480 552 41,000  Level Anchorage Center
10:09PM 54.5833 173.6833 234° Southwest 480 552 41,000  Level Anchorage Center
10:10PM 54.5167 173.5167 235° Southwest 470 541 41,000  Level Anchorage Center
10:11PM 54.4333 173.3000 237° Southwest 490 564 41,000  Level Anchorage Center
10:12PM 54.3833 173.1333 243° Southwest 480 552 41,000  Level Anchorage Center
10:13PM 54.3000 172.9333 235° Southwest 470 541 41,000  Level Anchorage Center
10:14PM 54.2333 172.7667 236° Southwest 470 541 41,000  Level Anchorage Center
10:15PM 54.1500 172.5667 235° Southwest 490 564 41,000  Level Anchorage Center
10:17PM 54.0000 172.2000 235° Southwest 480 552 41,000  Level Anchorage Center
10:18PM 53.9167 172.0000 235° Southwest 460 529 41,000  Level Anchorage Center
10:19PM 53.8500 171.8500 233° Southwest 450 518 41,000  Level Anchorage Center
10:20PM 53.7667 171.6500 235° Southwest 470 541 41,000  Level Anchorage Center
10:21PM 53.7000 171.5000 233° Southwest 460 529 41,000  Level Anchorage Center
10:22PM 53.6167 171.3000 235° Southwest 470 541 41,000  Level Anchorage Center
10:23PM 53.5333 171.1000 235° Southwest 480 552 41,000  Level Anchorage Center
10:24PM 53.4667 170.9500 233° Southwest 460 529 41,000  Level Anchorage Center
10:25PM 53.3833 170.7667 233° Southwest 470 541 41,000  Level Anchorage Center
10:26PM 53.3167 170.6167 233° Southwest 470 541 41,000  Level Anchorage Center
10:27PM 53.2333 170.4333 233° Southwest 460 529 41,000  Level Anchorage Center
10:28PM 53.1667 170.2833 233° Southwest 470 541 41,000  Level Anchorage Center
10:29PM 53.0833 170.0833 235° Southwest 470 541 41,000  Level Anchorage Center
10:30PM 53.0167 169.9333 234° Southwest 460 529 41,000  Level Anchorage Center
10:31PM 52.9500 169.7500 239° Southwest 460 529 41,000  Level Anchorage Center
10:32PM 52.8667 169.5333 238° Southwest 470 541 41,000  Level Anchorage Center
10:33PM 52.8167 169.3667 244° Southwest 470 541 41,000  Level Anchorage Center
10:34PM 52.7500 169.1667 241° Southwest 460 529 41,000  Level Anchorage Center
10:35PM 52.7000 169.0167 241° Southwest 470 541 41,000  Level Anchorage Center
10:36PM 52.6167 168.8167 236° Southwest 460 529 41,000  Level Anchorage Center
10:37PM 52.5667 168.6667 241° Southwest 450 518 41,000  Level Anchorage Center
10:38PM 52.5000 168.4667 241° Southwest 440 506 41,000  Level Anchorage Center
10:39PM 52.4667 168.3167 250° West 430 495 41,000  Level Anchorage Center
10:40PM 52.3833 168.1167 236° Southwest 460 529 41,000  Level Anchorage Center
10:41PM 52.3167 167.9167 241° Southwest 460 529 41,000  Level Anchorage Center
10:42PM 52.2500 167.7667 234° Southwest 460 529 41,000  Level Anchorage Center
10:43PM 52.1833 167.5667 242° Southwest 470 541 41,000  Level Anchorage Center
10:44PM 52.1333 167.4167 242° Southwest 460 529 41,000  Level Anchorage Center
10:45PM 52.0333 167.1167 239° Southwest 463 533 41,000  Level Anchorage Center
10:52PM 51.5853 165.9378 238° Southwest 463 533 41,000  Level FlightAware Transoceanic
10:53PM 51.5095 165.7436 238° Southwest 463 533 41,000  Level FlightAware Transoceanic
10:54PM 51.4333 165.5500 237° Southwest 463 533 41,000  Level FlightAware Transoceanic
10:54PM 51.4333 165.5500 237° Southwest 460 529 41,000  Level Anchorage Center
10:55PM 51.3650 165.3818 237° Southwest 463 533 41,000  Level FlightAware Transoceanic
10:55PM 51.3833 165.4167 237° Southwest 462 532 41,000  Level Anchorage Center
10:56PM 51.2964 165.2142 237° Southwest 463 533 41,000  Level FlightAware Transoceanic
10:57PM 51.2276 165.0470 237° Southwest 463 533 41,000  Level FlightAware Transoceanic
10:58PM 51.1586 164.8803 236° Southwest 463 533 41,000  Level FlightAware Transoceanic
10:59PM 51.0893 164.7142 236° Southwest 463 533 41,000  Level FlightAware Transoceanic
11:00PM 51.0197 164.5485 236° Southwest 463 533 41,000  Level FlightAware Transoceanic
11:01PM 50.9500 164.3833 237° Southwest 462 532 41,000  Level FlightAware Transoceanic
11:01PM 50.9500 164.3833 237° Southwest 457 526 41,000  Level Anchorage Center
11:02PM 50.8824 164.2191 237° Southwest 462 532 41,000  Level FlightAware Transoceanic
11:03PM 50.8145 164.0553 237° Southwest 462 532 41,000  Level FlightAware Transoceanic
11:04PM 50.7464 163.8921 237° Southwest 462 532 41,000  Level FlightAware Transoceanic
11:05PM 50.6782 163.7293 236° Southwest 462 532 41,000  Level FlightAware Transoceanic
11:05PM 50.7167 163.8000 236° Southwest 457 526 41,000  Level Anchorage Center
11:06PM 50.6096 163.5670 236° Southwest 462 532 41,000  Level FlightAware Transoceanic
11:07PM 50.5409 163.4051 236° Southwest 457 526 41,000  Level FlightAware Transoceanic
11:08PM 50.4719 163.2437 236° Southwest 457 526 41,000  Level FlightAware Transoceanic
11:09PM 50.4027 163.0828 236° Southwest 457 526 41,000  Level FlightAware Transoceanic
11:10PM 50.3332 162.9224 236° Southwest 457 526 41,000  Level FlightAware Transoceanic
11:11PM 50.2889 162.8072 236° Southwest 457 526 41,000  Level FlightAware Transoceanic
11:12PM 50.2168 162.6435 235° Southwest 457 526 41,000  Level FlightAware Transoceanic
11:13PM 50.1445 162.4803 235° Southwest 457 526 41,000  Level FlightAware Transoceanic
11:14PM 50.0719 162.3176 235° Southwest 457 526 41,000  Level FlightAware Transoceanic
11:14PM 50.0333 162.2500 235° Southwest 441 507 41,000  Level Anchorage Center
11:15PM 49.9991 162.1553 235° Southwest 457 526 41,000  Level FlightAware Transoceanic
11:16PM 49.9261 161.9936 235° Southwest 457 526 41,000  Level FlightAware Transoceanic
11:17PM 49.8529 161.8323 235° Southwest 457 526 41,000  Level FlightAware Transoceanic
11:18PM 49.7794 161.6715 235° Southwest 457 526 41,000  Level FlightAware Transoceanic
11:19PM 49.7057 161.5113 235° Southwest 457 526 41,000  Level FlightAware Transoceanic
11:20PM 49.6220 161.3349 235° Southwest 441 507 41,000  Level FlightAware Transoceanic
11:21PM 49.5528 161.1839 235° Southwest 441 507 41,000  Level FlightAware Transoceanic
11:22PM 49.4833 161.0333 234° Southwest 441 507 41,000  Level FlightAware Transoceanic
11:22PM 49.4833 161.0333 234° Southwest 433 498 41,000  Level Anchorage Center
11:23PM 49.4148 160.8869 234° Southwest 441 507 41,000  Level FlightAware Transoceanic
11:24PM 49.3461 160.7408 234° Southwest 441 507 41,000  Level FlightAware Transoceanic
11:24PM 49.3667 160.8000 235° Southwest 432 497 41,000  Level Anchorage Center
11:25PM 49.2773 160.5952 234° Southwest 441 507 41,000  Level FlightAware Transoceanic
11:26PM 49.2082 160.4500 234° Southwest 441 507 41,000  Level FlightAware Transoceanic
11:27PM 49.1390 160.3051 234° Southwest 441 507 41,000  Level FlightAware Transoceanic
11:28PM 49.0696 160.1607 234° Southwest 433 498 41,000  Level FlightAware Transoceanic
11:29PM 49.0000 160.0167 233° Southwest 433 498 41,000  Level FlightAware Transoceanic
11:30PM 48.9269 159.8675 233° Southwest 432 497 41,000  Level FlightAware Transoceanic
11:31PM 48.8535 159.7187 233° Southwest 432 497 41,000  Level FlightAware Transoceanic
11:32PM 48.7800 159.5704 233° Southwest 432 497 41,000  Level FlightAware Transoceanic
11:33PM 48.7063 159.4225 233° Southwest 432 497 41,000  Level FlightAware Transoceanic
11:34PM 48.6324 159.2751 233° Southwest 432 497 41,000  Level FlightAware Transoceanic
11:35PM 48.5583 159.1280 233° Southwest 432 497 41,000  Level FlightAware Transoceanic
11:36PM 48.4841 158.9815 233° Southwest 432 497 41,000  Level FlightAware Transoceanic
11:37PM 48.4096 158.8353 232° Southwest 432 497 41,000  Level FlightAware Transoceanic
11:38PM 48.3350 158.6896 232° Southwest 432 497 41,000  Level FlightAware Transoceanic
11:39PM 48.2602 158.5443 232° Southwest 432 497 41,000  Level FlightAware Transoceanic
11:40PM 48.1852 158.3994 232° Southwest 432 497 41,000  Level FlightAware Transoceanic
11:41PM 48.1100 158.2549 232° Southwest 432 497 41,000  Level FlightAware Transoceanic
11:42PM 48.0346 158.1109 232° Southwest 432 497 41,000  Level FlightAware Transoceanic
11:43PM 47.9590 157.9673 232° Southwest 432 497 41,000  Level FlightAware Transoceanic
11:44PM 47.8833 157.8241 232° Southwest 432 497 41,000  Level FlightAware Transoceanic
11:45PM 47.8074 157.6813 232° Southwest 432 497 41,000  Level FlightAware Transoceanic
11:46PM 47.7313 157.5390 231° Southwest 432 497 41,000  Level FlightAware Transoceanic
11:47PM 47.6551 157.3970 231° Southwest 432 497 41,000  Level FlightAware Transoceanic
11:48PM 47.5787 157.2555 231° Southwest 432 497 41,000  Level FlightAware Transoceanic
11:49PM 47.5021 157.1144 231° Southwest 432 497 41,000  Level FlightAware Transoceanic
11:50PM 47.4253 156.9737 231° Southwest 432 497 41,000  Level FlightAware Transoceanic
11:51PM 47.3483 156.8334 231° Southwest 432 497 41,000  Level FlightAware Transoceanic
11:52PM 47.2712 156.6935 231° Southwest 432 497 41,000  Level FlightAware Transoceanic
11:53PM 47.1939 156.5540 231° Southwest 432 497 41,000  Level FlightAware Transoceanic
11:54PM 47.1165 156.4149 231° Southwest 432 497 41,000  Level FlightAware Transoceanic
11:55PM 47.0388 156.2763 231° Southwest 432 497 41,000  Level FlightAware Transoceanic
11:56PM 46.9611 156.1380 230° Southwest 432 497 41,000  Level FlightAware Transoceanic
11:57PM 46.8831 156.0002 230° Southwest 432 497 41,000  Level FlightAware Transoceanic
11:58PM 46.8050 155.8627 230° Southwest 432 497 41,000  Level FlightAware Transoceanic
11:59PM 46.7267 155.7256 230° Southwest 432 497 41,000  Level FlightAware Transoceanic
12:00AM 46.6483 155.5890 230° Southwest 432 497 41,000  Level FlightAware Transoceanic
12:01AM 46.5696 155.4527 230° Southwest 432 497 41,000  Level FlightAware Transoceanic
12:02AM 46.4909 155.3168 230° Southwest 432 497 41,000  Level FlightAware Transoceanic
12:03AM 46.4119 155.1814 230° Southwest 432 497 41,000  Level FlightAware Transoceanic
12:04AM 46.3328 155.0463 230° Southwest 432 497 41,000  Level FlightAware Transoceanic
12:05AM 46.2536 154.9116 230° Southwest 432 497 41,000  Level FlightAware Transoceanic
12:06AM 46.1742 154.7773 229° Southwest 432 497 41,000  Level FlightAware Transoceanic
12:07AM 46.0946 154.6434 229° Southwest 432 497 41,000  Level FlightAware Transoceanic
12:08AM 46.0149 154.5098 229° Southwest 432 497 41,000  Level FlightAware Transoceanic
12:09AM 45.9350 154.3767 229° Southwest 432 497 41,000  Level FlightAware Transoceanic
12:10AM 45.8550 154.2439 229° Southwest 432 497 41,000  Level FlightAware Transoceanic
12:11AM 45.7748 154.1115 229° Southwest 432 497 41,000  Level FlightAware Transoceanic
12:12AM 45.6945 153.9795 229° Southwest 432 497 41,000  Level FlightAware Transoceanic
12:13AM 45.6140 153.8479 229° Southwest 432 497 41,000  Level FlightAware Transoceanic
12:14AM 45.5215 153.7231 223° Southwest  Level FlightAware Approximate
12:15AM 45.4288 153.5988 223° Southwest  Level FlightAware Approximate
12:16AM 45.4337 153.5811 229° Southwest  Level FlightAware Approximate
12:17AM 45.3498 153.4448 229° Southwest  Level FlightAware Approximate
12:18AM 45.2658 153.3089 229° Southwest  Level FlightAware Approximate
12:19AM 45.1816 153.1735 229° Southwest  Level FlightAware Approximate
12:20AM 45.0973 153.0384 229° Southwest  Level FlightAware Approximate
12:21AM 45.0128 152.9037 228° Southwest  Level FlightAware Approximate
12:22AM 44.9273 152.7706 228° Southwest  Level FlightAware Approximate
12:23AM 44.8414 152.6380 228° Southwest  Level FlightAware Approximate
12:24AM 44.7555 152.5059 228° Southwest  Level FlightAware Approximate
12:25AM 44.6693 152.3741 227° Southwest  Level FlightAware Approximate
12:26AM 44.5830 152.2428 227° Southwest  Level FlightAware Approximate
12:27AM 44.4966 152.1118 227° Southwest  Level FlightAware Approximate
12:28AM 44.4102 151.9809 227° Southwest  Level FlightAware Approximate
12:29AM 44.3238 151.8502 227° Southwest  Level FlightAware Approximate
12:30AM 44.2373 151.7199 227° Southwest  Level FlightAware Approximate
12:31AM 44.1507 151.5899 227° Southwest  Level FlightAware Approximate
12:32AM 44.0639 151.4604 227° Southwest  Level FlightAware Approximate
12:33AM 43.9769 151.3312 227° Southwest  Level FlightAware Approximate
12:34AM 43.8896 151.2027 227° Southwest  Level FlightAware Approximate
12:35AM 43.8019 151.0749 226° Southwest  Level FlightAware Approximate
12:36AM 43.7141 150.9474 226° Southwest  Level FlightAware Approximate
12:37AM 43.6261 150.8204 226° Southwest  Level FlightAware Approximate
12:38AM 43.5380 150.6937 226° Southwest  Level FlightAware Approximate
12:39AM 43.4497 150.5673 226° Southwest  Level FlightAware Approximate
12:40AM 43.3613 150.4414 226° Southwest  Level FlightAware Approximate
12:41AM 43.2728 150.3158 226° Southwest  Level FlightAware Approximate
12:42AM 43.1841 150.1906 226° Southwest  Level FlightAware Approximate
12:43AM 43.0953 150.0657 226° Southwest  Level FlightAware Approximate
12:44AM 43.0064 149.9412 226° Southwest  Level FlightAware Approximate
12:44AM 42.9430 149.8500 226° Southwest 444 511 41,000  Level FlightAware
12:45AM 42.9173 149.8170 226° Southwest  Level FlightAware Approximate
12:46AM 42.8295 149.6952 226° Southwest  Level FlightAware Approximate
12:46AM 42.8620 149.7360 226° Southwest 443 510 41,000  Level FlightAware
12:46AM 42.8190 149.6750 226° Southwest 443 510 41,000  Level FlightAware
12:47AM 42.7110 149.5270 225° Southwest 444 511 41,000  Level FlightAware
12:48AM 42.6530 149.4470 225° Southwest 444 511 41,000  Level FlightAware
12:49AM 42.5640 149.3240 226° Southwest 445 512 41,000  Level FlightAware
12:50AM 42.4920 149.2270 225° Southwest 446 513 41,000  Level FlightAware
12:50AM 42.4410 149.1570 225° Southwest 444 511 41,000  Level FlightAware
12:51AM 42.3640 149.0520 225° Southwest 444 511 41,000  Level FlightAware
12:52AM 42.3200 148.9940 224° Southwest 444 511 41,000  Level FlightAware
12:52AM 42.2470 148.8950 225° Southwest 441 507 41,000  Level FlightAware
12:53AM 42.1750 148.7970 225° Southwest 439 505 41,000  Level FlightAware
12:54AM 42.1190 148.7220 225° Southwest 439 505 41,000  Level FlightAware
12:55AM 42.0550 148.6370 225° Southwest 439 505 41,000  Level FlightAware
12:55AM 41.9950 148.5560 225° Southwest 439 505 41,000  Level FlightAware
12:56AM 41.9250 148.4630 225° Southwest 439 505 41,000  Level FlightAware
12:57AM 41.8590 148.3760 224° Southwest 440 506 41,000  Level FlightAware
12:57AM 41.8080 148.3080 225° Southwest 440 506 41,000  Level FlightAware
12:58AM 41.7420 148.2200 225° Southwest 437 503 41,000  Level FlightAware
12:59AM 41.6820 148.1420 224° Southwest 444 511 41,000  Level FlightAware
12:59AM 41.6310 148.0770 224° Southwest 443 510 41,000  Level FlightAware
01:00AM 41.5520 147.9760 224° Southwest 436 502 41,000  Level FlightAware
01:01AM 41.4830 147.8870 224° Southwest 435 501 41,000  Level FlightAware
01:02AM 41.4230 147.8100 224° Southwest 442 509 41,000  Level FlightAware
01:02AM 41.3580 147.7280 223° Southwest 443 510 41,000  Level FlightAware
01:03AM 41.3080 147.6640 224° Southwest 444 511 41,000  Level FlightAware
01:04AM 41.2360 147.5740 223° Southwest 442 509 41,000  Level FlightAware
01:05AM 41.1500 147.4640 224° Southwest 443 510 41,000  Level FlightAware
01:05AM 41.1050 147.4070 224° Southwest 444 511 41,000  Level FlightAware
01:06AM 41.0480 147.3360 223° Southwest 444 511 41,000  Level FlightAware
01:07AM 40.9840 147.2550 224° Southwest 442 509 41,000  Level FlightAware
01:08AM 40.8980 147.1480 223° Southwest 444 511 41,000  Level FlightAware
01:09AM 40.8200 147.0520 223° Southwest 444 511 41,000  Level FlightAware
01:09AM 40.7440 146.9560 224° Southwest 445 512 41,000  Level FlightAware
01:10AM 40.6710 146.8660 223° Southwest 446 513 41,000  Level FlightAware
01:11AM 40.6180 146.8000 223° Southwest 445 512 41,000  Level FlightAware
01:12AM 40.5500 146.7160 223° Southwest 444 511 41,000  Level FlightAware
01:12AM 40.4940 146.6480 223° Southwest 445 512 41,000  Level FlightAware
01:13AM 40.4260 146.5650 223° Southwest 445 512 41,000  Level FlightAware
01:14AM 40.3620 146.4870 223° Southwest 445 512 41,000  Level FlightAware
01:15AM 40.2820 146.3890 223° Southwest 445 512 41,000  Level FlightAware
01:15AM 40.2170 146.3100 223° Southwest 440 506 41,000  Level FlightAware
01:16AM 40.1690 146.2520 223° Southwest 440 506 41,000  Level FlightAware
01:17AM 40.0890 146.1560 223° Southwest 440 506 41,000  Level FlightAware
01:17AM 40.0470 146.1050 223° Southwest 442 509 41,000  Level FlightAware
01:18AM 39.9740 146.0170 223° Southwest 442 509 41,000  Level FlightAware
01:19AM 39.9080 145.9390 222° Southwest 442 509 41,000  Level FlightAware
01:19AM 39.8610 145.8820 223° Southwest 442 509 41,000  Level FlightAware
01:20AM 39.7900 145.7980 222° Southwest 443 510 41,000  Level FlightAware
01:21AM 39.7360 145.7330 223° Southwest 445 512 41,000  Level FlightAware
01:21AM 39.6890 145.6750 224° Southwest 445 512 41,000  Level FlightAware
01:22AM 39.6400 145.6160 223° Southwest 445 512 41,000  Level FlightAware
01:23AM 39.5940 145.5610 223° Southwest 445 512 41,000  Level FlightAware
01:24AM 39.4550 145.4010 222° Southwest 445 512 41,000  Level FlightAware
01:24AM 39.4090 145.3450 223° Southwest 445 512 41,000  Level FlightAware
01:25AM 39.3620 145.2880 223° Southwest 445 512 41,000  Level FlightAware
01:25AM 39.3130 145.2300 222° Southwest 445 512 41,000  Level FlightAware
01:26AM 39.2500 145.1540 223° Southwest 445 512 41,000  Level FlightAware
01:27AM 39.1890 145.0800 223° Southwest 445 512 41,000  Level FlightAware
01:28AM 39.1300 145.0090 223° Southwest 445 512 41,000  Level FlightAware
01:28AM 39.0840 144.9540 223° Southwest 445 512 41,000  Level FlightAware
01:29AM 39.0220 144.8800 223° Southwest 445 512 41,000  Level FlightAware
01:30AM 38.9920 144.8430 224° Southwest 445 512 41,000  Level FlightAware
01:31AM 38.8850 144.7160 223° Southwest 445 512 41,000  Level FlightAware
01:32AM 38.8380 144.6590 223° Southwest 445 512 41,000  Level FlightAware
01:32AM 38.7770 144.5860 223° Southwest 445 512 41,000  Level FlightAware
01:33AM 38.7320 144.5320 223° Southwest 445 512 41,000 -60 Level FlightAware
01:36AM 38.4945 144.2742 220° Southwest  Level FlightAware Approximate
01:37AM 38.3988 144.1709 220° Southwest  Level FlightAware Approximate
01:38AM 38.3029 144.0679 220° Southwest  Level FlightAware Approximate
01:39AM 38.2069 143.9651 220° Southwest  Level FlightAware Approximate
01:40AM 38.1109 143.8626 220° Southwest  Level FlightAware Approximate
01:41AM 38.0147 143.7604 220° Southwest  Level FlightAware Approximate
01:42AM 37.9185 143.6584 220° Southwest  Level FlightAware Approximate
01:43AM 37.8222 143.5567 220° Southwest  Level FlightAware Approximate
01:43AM 37.6210 143.3160 220° Southwest 461 531 40,800  Level FlightAware
01:44AM 37.5360 143.2230 221° Southwest 460 529 39,000 -2,040 Descending FlightAware
01:44AM 37.4780 143.1600 221° Southwest 460 529 37,700 -2,580 Descending FlightAware
01:45AM 37.3770 143.0500 221° Southwest 468 539 35,000 -2,280 Descending FlightAware
01:46AM 37.2990 142.9910 211° Southwest 486 559 34,000 -780 Descending FlightAware
01:47AM 37.2040 142.9410 203° Southwest 481 554 33,900 -600 Descending FlightAware
01:47AM 37.1280 142.8910 208° Southwest 488 562 33,200 -1,320 Descending FlightAware
01:48AM 37.0400 142.8260 211° Southwest 486 559 32,100 -1,440 Descending FlightAware
01:49AM 36.9690 142.7730 211° Southwest 488 562 31,300 -1,320 Descending FlightAware
01:50AM 36.8700 142.7010 210° Southwest 488 562 30,300 -1,320 Descending FlightAware
01:50AM 36.7940 142.6450 211° Southwest 484 557 29,400 -1,380 Descending FlightAware
01:51AM 36.7170 142.5890 210° Southwest 467 537 28,500 -1,260 Descending FlightAware
01:52AM 36.6330 142.5270 211° Southwest 464 534 27,600 -1,200 Descending FlightAware
01:52AM 36.5580 142.4730 210° Southwest 462 532 26,800 -1,260 Descending FlightAware
01:53AM 36.4880 142.4220 210° Southwest 446 513 26,000 -1,200 Descending FlightAware
01:54AM 36.4050 142.3620 210° Southwest 443 510 25,100 -1,200 Descending FlightAware
01:54AM 36.3360 142.3120 210° Southwest 431 496 24,300 -1,200 Descending FlightAware
01:55AM 36.2660 142.2610 210° Southwest 432 497 23,500 -1,200 Descending FlightAware
01:56AM 36.1860 142.2040 210° Southwest 429 494 22,600 -1,140 Descending FlightAware
01:57AM 36.1220 142.1570 211° Southwest 424 488 21,900 -1,140 Descending FlightAware
01:57AM 36.0320 142.0930 210° Southwest 412 474 20,900 -1,140 Descending FlightAware
01:58AM 35.9680 142.0480 210° Southwest 409 471 20,200 -1,080 Descending FlightAware
01:59AM 35.8950 141.9950 210° Southwest 394 453 19,400 -1,020 Descending FlightAware
01:59AM 35.8350 141.9530 210° Southwest 395 455 18,800 -1,080 Descending FlightAware
02:00AM 35.7840 141.9080 216° Southwest 396 456 18,100 -1,200 Descending FlightAware
02:00AM 35.7730 141.8870 237° Southwest 391 450 17,900 -1,320 Descending FlightAware
02:01AM 35.7660 141.7920 265° West 396 456 17,000 -1,200 Descending FlightAware
02:02AM 35.7730 141.7080 276° West 395 455 16,300 -1,200 Descending FlightAware
02:02AM 35.7840 141.6000 277° West 390 449 15,300 -1,200 Descending FlightAware
02:03AM 35.7920 141.5130 276° West 378 435 14,600 -1,080 Descending FlightAware
02:04AM 35.8000 141.4210 276° West 347 399 13,800 -900 Descending FlightAware
02:04AM 35.8060 141.3500 276° West 319 367 13,400 -840 Descending FlightAware
02:05AM 35.8130 141.2770 277° West 296 341 12,700 -900 Descending FlightAware
02:06AM 35.8180 141.2240 277° West 281 323 12,300 -780 Descending FlightAware
02:06AM 35.8240 141.1530 276° West 263 303 11,700 -840 Descending FlightAware
02:07AM 35.8290 141.1010 277° West 253 291 11,200 -840 Descending FlightAware
02:08AM 35.8330 141.0510 276° West 251 289 10,800 -780 Descending FlightAware
02:08AM 35.8390 140.9850 276° West 248 285 10,200 -720 Descending FlightAware
02:09AM 35.8420 140.9490 276° West 247 284 9,900 -660 Descending FlightAware
02:09AM 35.8450 140.9090 275° West 244 281 9,600 -780 Descending FlightAware
02:10AM 35.8490 140.8680 277° West 242 278 9,200 -540 Descending FlightAware
02:10AM 35.8570 140.8340 286° West 252 290 9,100 -480 Descending FlightAware
02:11AM 35.8740 140.8020 303° West 248 285 8,800 -660 Descending FlightAware
02:11AM 35.8950 140.7610 302° West 249 287 8,500 -600 Descending FlightAware
02:12AM 35.9140 140.7240 302° West 250 288 8,200 -480 Descending FlightAware
02:12AM 35.9200 140.7120 302° West 250 288 8,200 -480 Level FlightAware
02:12AM 35.9390 140.6760 303° West 250 288 7,900 -600 Descending FlightAware
02:13AM 35.9550 140.6450 303° West 252 290 7,700 -480 Descending FlightAware
02:13AM 35.9740 140.6090 303° West 250 288 7,500 -360 Descending FlightAware
02:14AM 35.9900 140.5780 303° West 251 289 7,400 -300 Descending FlightAware
02:14AM 36.0020 140.5520 300° West 251 289 7,300 -300 Descending FlightAware
02:14AM 36.0180 140.5220 303° West 251 289 7,200 -180 Descending FlightAware
02:15AM 36.0450 140.4690 302° West 254 292 7,100 -180 Descending FlightAware
02:16AM 36.0620 140.4360 303° West 254 292 7,000 -300 Descending FlightAware
02:16AM 36.0730 140.4150 303° West 253 291 6,900 -300 Descending FlightAware
02:16AM 36.0880 140.3850 302° West 249 287 6,800 -420 Descending FlightAware
02:17AM 36.1020 140.3570 302° West 250 288 6,600 -780 Descending FlightAware
02:17AM 36.1130 140.3350 302° West 249 287 6,300 -840 Descending FlightAware
02:17AM 36.1190 140.3180 294° West 244 281 6,200 -420 Descending FlightAware
02:18AM 36.1200 140.2730 272° West 243 280 6,000 -720 Descending FlightAware
02:18AM 36.1200 140.2300 270° West 242 278 5,500 -900 Descending FlightAware
02:18AM 36.1190 140.2190 264° West 241 277 5,400 -960 Descending FlightAware
02:19AM 36.1130 140.2000 249° West 240 276 5,100 -1,020 Descending FlightAware
02:19AM 36.0990 140.1840 223° Southwest 244 281 4,900 -720 Descending FlightAware
02:19AM 36.0890 140.1790 202° Southwest 237 273 4,800 -600 Descending FlightAware
02:19AM 36.0790 140.1770 189° South 246 283 4,700 -480 Descending FlightAware
02:20AM 36.0440 140.1780 179° South 228 262 4,500 -300 Descending FlightAware
02:20AM 36.0350 140.1810 165° South 223 257 4,500  Level FlightAware
02:20AM 36.0070 140.2000 151° Southeast 211 243 4,500  Level FlightAware
02:21AM 35.9940 140.2090 151° Southeast 207 238 4,500  Level FlightAware
02:21AM 35.9760 140.2220 150° Southeast 187 215 4,500 -360 Level FlightAware
02:21AM 35.9550 140.2370 150° Southeast 189 217 4,200 -840 Descending FlightAware
02:22AM 35.9370 140.2500 150° Southeast 203 234 3,800 -1,080 Descending FlightAware
02:22AM 35.9120 140.2690 148° Southeast 191 220 3,200 -1,080 Descending FlightAware
02:23AM 35.8930 140.2830 149° Southeast 173 199 2,800 -840 Descending FlightAware
02:23AM 35.8750 140.2950 152° Southeast 167 192 2,500 -900 Descending FlightAware
02:24AM 35.8590 140.3070 149° Southeast 153 176 2,100 -900 Descending FlightAware
02:24AM 35.8400 140.3210 149° Southeast 154 177 1,700 -780 Descending FlightAware
02:24AM 35.8260 140.3310 150° Southeast 135 155 1,400 -780 Descending FlightAware
02:25AM 35.8170 140.3370 152° Southeast 134 154 1,200 -780 Descending FlightAware
02:25AM 35.8040 140.3470 148° Southeast 131 151 900 -600 Descending FlightAware
02:26AM 35.7860 140.3600 150° Southeast 135 155 600 -360 Descending FlightAware
02:26AM 35.7700 140.3710 151° Southeast 135 155 500 -180 Descending FlightAware